Time;durP1;ratioP1;P1;durP2;ratioP2;P2;SDS_P1;SDS_P2;PMS_P1;PMS_P2;Temp;Humidity;BMP_temperature;BMP_pressure;BME280_temperature;BME280_humidity;BME280_pressure;Samples;Min_cycle;Max_cycle;Signal;HPM_P1;HPM_P2
2023/04/12 00:01:01;;;;;;;;;;;;;;;;;;6189970;23;20332;-86
2023/04/12 00:03:32;;;;;;;;;;;;;;;;;;6190715;23;19927;-86
2023/04/12 00:06:06;;;;;;;;;;;;;;;;;;6163518;23;19927;-86
2023/04/12 00:08:34;;;;;;;;;;;;;;;;;;6200695;23;19927;-86
2023/04/12 00:11:01;;;;;;;;;;;;;;;;;;6159412;23;19927;-88
2023/04/12 00:13:28;;;;;;;;;;;;;;;;;;6194867;23;19920;-88
2023/04/12 00:15:55;;;;;;;;;;;;;;;;;;6161116;23;19929;-88
2023/04/12 00:18:23;;;;;;;;;;;;;;;;;;6159254;23;19921;-86
2023/04/12 00:20:53;;;;;;;;;;;;;;;;;;6184266;23;19927;-86
2023/04/12 00:23:20;;;;;;;;;;;;;;;;;;6184935;23;19951;-87
2023/04/12 00:25:48;;;;;;;;;;;;;;;;;;6157728;23;20256;-87
2023/04/12 00:28:18;;;;;;;;;;;;;;;;;;6158322;23;19927;-87
2023/04/12 00:30:45;;;;;;;;;;;;;;;;;;6158425;23;19924;-87
2023/04/12 00:33:14;;;;;;;;;;;;;;;;;;6133889;23;19936;-87
2023/04/12 00:35:41;;;;;;;;;;;;;;;;;;6184426;23;19920;-88
2023/04/12 00:38:09;;;;;;;;;;;;;;;;;;6134114;23;19927;-87
2023/04/12 00:40:41;;;;;;;;;;;;;;;;;;6157644;23;20252;-87
2023/04/12 00:43:14;;;;;;;;;;;;;;;;;;6157585;23;19931;-87
2023/04/12 00:45:45;;;;;;;;;;;;;;;;;;6134014;23;19931;-87
2023/04/12 00:48:15;;;;;;;;;;;;;;;;;;6185097;23;19921;-87
2023/04/12 00:50:46;;;;;;;;;;;;;;;;;;6158732;23;19920;-88
2023/04/12 00:53:19;;;;;;;;;;;;;;;;;;6167817;23;19927;-88
2023/04/12 00:55:50;;;;;;;;;;;;;;;;;;6158405;23;20367;-87
2023/04/12 00:58:18;;;;;;;;;;;;;;;;;;6184724;23;19927;-88
2023/04/12 01:00:48;;;;;;;;;;;;;;;;;;6157735;23;19924;-88
2023/04/12 01:03:21;;;;;;;;;;;;;;;;;;6167118;23;19924;-88
2023/04/12 01:05:53;;;;;;;;;;;;;;;;;;6187972;23;19928;-88
2023/04/12 01:08:24;;;;;;;;;;;;;;;;;;6168840;23;19920;-88
2023/04/12 01:10:53;;;;;;;;;;;;;;;;;;6157922;23;20355;-86
2023/04/12 01:13:27;;;;;;;;;;;;;;;;;;6167736;23;20263;-86
2023/04/12 01:15:59;;;;;;;;;;;;;;;;;;6160862;23;19928;-87
2023/04/12 01:18:27;;;;;;;;;;;;;;;;;;6168151;23;19932;-88
2023/04/12 01:21:00;;;;;;;;;;;;;;;;;;6167464;23;19930;-88
2023/04/12 01:23:45;;;;;;;;;;;;;;;;;;6133778;23;19927;-88
2023/04/12 01:26:20;;;;;;;;;;;;;;;;;;6162876;23;19927;-89
2023/04/12 01:28:49;;;;;;;;;;;;;;;;;;6162144;23;19920;-88
2023/04/12 01:31:19;;;;;;;;;;;;;;;;;;6222260;23;19924;-88
2023/04/12 01:33:46;;;;;;;;;;;;;;;;;;6197011;23;19931;-88
2023/04/12 01:36:18;;;;;;;;;;;;;;;;;;6185636;23;19920;-88
2023/04/12 01:38:45;;;;;;;;;;;;;;;;;;6187284;23;19920;-88
2023/04/12 01:41:12;;;;;;;;;;;;;;;;;;6186717;23;19920;-88
2023/04/12 01:43:42;;;;;;;;;;;;;;;;;;6161474;23;19943;-89
2023/04/12 01:46:11;;;;;;;;;;;;;;;;;;6186037;23;20343;-89
2023/04/12 01:48:39;;;;;;;;;;;;;;;;;;6187130;23;19920;-88
2023/04/12 01:51:06;;;;;;;;;;;;;;;;;;6162427;23;19919;-88
2023/04/12 01:53:35;;;;;;;;;;;;;;;;;;6224155;23;19927;-89
2023/04/12 01:56:04;;;;;;;;;;;;;;;;;;6214237;23;19920;-88
2023/04/12 01:58:31;;;;;;;;;;;;;;;;;;6200454;23;19943;-89
2023/04/12 02:00:58;;;;;;;;;;;;;;;;;;6189765;23;19939;-89
2023/04/12 02:03:29;;;;;;;;;;;;;;;;;;6191628;23;20260;-89
2023/04/12 02:05:58;;;;;;;;;;;;;;;;;;6217923;23;19928;-88
2023/04/12 02:08:25;;;;;;;;;;;;;;;;;;6192018;23;19951;-89
2023/04/12 02:10:53;;;;;;;;;;;;;;;;;;6217189;23;19952;-88
2023/04/12 02:13:20;;;;;;;;;;;;;;;;;;6242671;22;19940;-88
2023/04/12 02:15:47;;;;;;;;;;;;;;;;;;6190663;23;19959;-88
2023/04/12 02:18:15;;;;;;;;;;;;;;;;;;6214255;23;19904;-88
2023/04/12 02:20:45;;;;;;;;;;;;;;;;;;6191159;23;20308;-89
2023/04/12 02:23:12;;;;;;;;;;;;;;;;;;6187683;23;19920;-89
2023/04/12 02:25:40;;;;;;;;;;;;;;;;;;6111291;23;1780732;-88
2023/04/12 02:28:07;;;;;;;;;;;;;;;;;;6164217;23;20303;-89
2023/04/12 02:30:35;;;;;;;;;;;;;;;;;;6189103;23;19931;-89
2023/04/12 02:33:03;;;;;;;;;;;;;;;;;;6164110;23;19920;-88
2023/04/12 02:35:35;;;;;;;;;;;;;;;;;;6164894;23;20359;-88
2023/04/12 02:38:09;;;;;;;;;;;;;;;;;;6199549;23;19939;-88
2023/04/12 02:40:39;;;;;;;;;;;;;;;;;;6163253;23;19927;-88
2023/04/12 02:43:07;;;;;;;;;;;;;;;;;;6189274;23;19923;-88
2023/04/12 02:45:36;;;;;;;;;;;;;;;;;;6189921;23;19920;-88
2023/04/12 02:48:04;;;;;;;;;;;;;;;;;;6189620;23;19919;-88
2023/04/12 02:50:32;;;;;;;;;;;;;;;;;;6188564;23;19923;-88
2023/04/12 02:53:10;;;;;;;;;;;;;;;;;;6198103;23;19931;-89
2023/04/12 02:55:40;;;;;;;;;;;;;;;;;;6196255;23;20255;-88
2023/04/12 02:58:08;;;;;;;;;;;;;;;;;;6164538;23;19924;-88
2023/04/12 03:00:45;;;;;;;;;;;;;;;;;;6164109;23;19931;-88
2023/04/12 03:03:16;;;;;;;;;;;;;;;;;;6164148;23;19927;-88
2023/04/12 03:05:46;;;;;;;;;;;;;;;;;;6164624;23;20344;-88
2023/04/12 03:08:20;;;;;;;;;;;;;;;;;;6189589;23;19920;-88
2023/04/12 03:10:56;;;;;;;;;;;;;;;;;;6199062;23;19919;-88
2023/04/12 03:13:27;;;;;;;;;;;;;;;;;;6163460;23;19927;-88
2023/04/12 03:15:56;;;;;;;;;;;;;;;;;;6164475;23;19920;-89
2023/04/12 03:18:27;;;;;;;;;;;;;;;;;;6199071;23;19927;-88
2023/04/12 03:20:56;;;;;;;;;;;;;;;;;;6189490;23;19920;-88
2023/04/12 03:23:25;;;;;;;;;;;;;;;;;;6198303;23;20344;-88
2023/04/12 03:26:02;;;;;;;;;;;;;;;;;;6219038;23;19927;-88
2023/04/12 03:28:31;;;;;;;;;;;;;;;;;;6187727;23;19920;-88
2023/04/12 03:30:59;;;;;;;;;;;;;;;;;;6187959;23;19920;-87
2023/04/12 03:33:35;;;;;;;;;;;;;;;;;;6198602;23;19943;-88
2023/04/12 03:36:07;;;;;;;;;;;;;;;;;;6193778;23;19919;-88
2023/04/12 03:38:38;;;;;;;;;;;;;;;;;;6189468;23;19927;-88
2023/04/12 03:41:11;;;;;;;;;;;;;;;;;;6163466;23;19964;-87
2023/04/12 03:43:39;;;;;;;;;;;;;;;;;;6186772;23;19924;-88
2023/04/12 03:46:18;;;;;;;;;;;;;;;;;;6163981;23;19931;-88
2023/04/12 03:48:51;;;;;;;;;;;;;;;;;;6198370;23;19920;-88
2023/04/12 03:51:25;;;;;;;;;;;;;;;;;;6164196;23;19927;-88
2023/04/12 03:54:01;;;;;;;;;;;;;;;;;;6164256;23;19920;-87
2023/04/12 03:56:29;;;;;;;;;;;;;;;;;;6191704;23;19924;-87
2023/04/12 03:58:58;;;;;;;;;;;;;;;;;;6189409;23;19920;-87
2023/04/12 04:01:27;;;;;;;;;;;;;;;;;;6188789;23;19943;-87
2023/04/12 04:03:54;;;;;;;;;;;;;;;;;;6188593;23;19923;-88
2023/04/12 04:06:28;;;;;;;;;;;;;;;;;;6190869;23;20236;-89
2023/04/12 04:08:56;;;;;;;;;;;;;;;;;;6189580;23;19920;-89
2023/04/12 04:11:25;;;;;;;;;;;;;;;;;;6188866;23;19920;-89
2023/04/12 04:13:57;;;;;;;;;;;;;;;;;;6198420;23;19924;-88
2023/04/12 04:16:24;;;;;;;;;;;;;;;;;;6188906;23;19924;-89
2023/04/12 04:18:55;;;;;;;;;;;;;;;;;;6189577;23;19927;-88
2023/04/12 04:21:23;;;;;;;;;;;;;;;;;;6188590;23;19920;-89
2023/04/12 04:23:57;;;;;;;;;;;;;;;;;;6198569;23;20367;-88
2023/04/12 04:26:31;;;;;;;;;;;;;;;;;;6162303;23;19924;-88
2023/04/12 04:29:02;;;;;;;;;;;;;;;;;;6187542;23;19920;-89
2023/04/12 04:31:35;;;;;;;;;;;;;;;;;;6164056;23;19927;-88
2023/04/12 04:34:06;;;;;;;;;;;;;;;;;;6189827;23;19968;-88
2023/04/12 04:36:38;;;;;;;;;;;;;;;;;;6163595;23;19927;-88
2023/04/12 04:39:06;;;;;;;;;;;;;;;;;;6164376;23;19920;-88
2023/04/12 04:41:43;;;;;;;;;;;;;;;;;;6225496;23;19927;-89
2023/04/12 04:44:17;;;;;;;;;;;;;;;;;;6163761;23;19943;-88
2023/04/12 04:46:53;;;;;;;;;;;;;;;;;;6189801;23;19959;-89
2023/04/12 04:49:20;;;;;;;;;;;;;;;;;;6189280;23;19924;-89
2023/04/12 04:51:47;;;;;;;;;;;;;;;;;;6163926;23;19920;-89
2023/04/12 04:54:15;;;;;;;;;;;;;;;;;;6189228;23;19920;-89
2023/04/12 04:56:44;;;;;;;;;;;;;;;;;;6190419;23;20335;-89
2023/04/12 04:59:13;;;;;;;;;;;;;;;;;;6199357;23;19926;-89
2023/04/12 05:01:42;;;;;;;;;;;;;;;;;;6188051;23;19923;-90
2023/04/12 05:04:09;;;;;;;;;;;;;;;;;;6164137;23;19947;-89
2023/04/12 05:06:39;;;;;;;;;;;;;;;;;;6164495;23;19943;-89
2023/04/12 05:09:09;;;;;;;;;;;;;;;;;;6164232;23;20236;-90
2023/04/12 05:11:43;;;;;;;;;;;;;;;;;;6198594;23;19927;-89
2023/04/12 05:14:12;;;;;;;;;;;;;;;;;;6189069;23;19920;-89
2023/04/12 05:16:41;;;;;;;;;;;;;;;;;;6163670;23;19927;-89
2023/04/12 05:19:08;;;;;;;;;;;;;;;;;;6188878;23;19920;-89
2023/04/12 05:21:35;;;;;;;;;;;;;;;;;;6187873;23;20252;-89
2023/04/12 05:24:02;;;;;;;;;;;;;;;;;;6199783;23;19924;-89
2023/04/12 05:26:33;;;;;;;;;;;;;;;;;;6192674;23;19927;-88
2023/04/12 05:29:07;;;;;;;;;;;;;;;;;;6189150;23;20199;-88
2023/04/12 05:31:34;;;;;;;;;;;;;;;;;;6199953;23;19920;-88
2023/04/12 05:34:05;;;;;;;;;;;;;;;;;;6201168;23;19927;-90
2023/04/12 05:36:35;;;;;;;;;;;;;;;;;;6165661;23;19920;-88
2023/04/12 05:39:04;;;;;;;;;;;;;;;;;;6165205;23;19920;-88
2023/04/12 05:41:34;;;;;;;;;;;;;;;;;;6165411;23;19927;-87
2023/04/12 05:44:03;;;;;;;;;;;;;;;;;;6227115;23;19927;-88
2023/04/12 05:46:36;;;;;;;;;;;;;;;;;;6189945;23;19947;-88
2023/04/12 05:49:06;;;;;;;;;;;;;;;;;;6199934;23;19927;-88
2023/04/12 05:51:33;;;;;;;;;;;;;;;;;;6191308;23;19935;-89
2023/04/12 05:54:05;;;;;;;;;;;;;;;;;;6191008;23;19927;-89
2023/04/12 07:26:22;;;;;;;;;;;;;;;;;;6167501;23;19924;-84
2023/04/12 07:28:49;;;;;;;;;;;;;;;;;;6168569;23;19921;-84
2023/04/12 07:31:16;;;;;;;;;;;;;;;;;;6158393;23;19927;-84
2023/04/12 07:33:44;;;;;;;;;;;;;;;;;;6185117;23;19920;-85
2023/04/12 07:36:11;;;;;;;;;;;;;;;;;;6129532;23;20248;-84
2023/04/12 07:38:38;;;;;;;;;;;;;;;;;;6165131;23;19920;-85
2023/04/12 07:41:05;;;;;;;;;;;;;;;;;;6164434;23;20148;-85
2023/04/12 07:43:33;;;;;;;;;;;;;;;;;;6155086;23;19921;-85
2023/04/12 07:46:03;;;;;;;;;;;;;;;;;;6135062;23;19924;-85
2023/04/12 07:48:30;;;;;;;;;;;;;;;;;;6129035;23;20341;-85
2023/04/12 07:50:57;;;;;;;;;;;;;;;;;;6154463;23;20345;-85
2023/04/12 07:53:25;;;;;;;;;;;;;;;;;;6154836;23;20341;-85
2023/04/12 07:55:52;;;;;;;;;;;;;;;;;;6104398;23;19928;-85
2023/04/12 07:58:20;;;;;;;;;;;;;;;;;;6129262;23;19947;-85
2023/04/12 08:00:48;;;;;;;;;;;;;;;;;;6129027;23;19927;-85
2023/04/12 08:03:15;;;;;;;;;;;;;;;;;;6155117;23;19928;-85
2023/04/12 08:05:43;;;;;;;;;;;;;;;;;;6155413;23;19927;-85
2023/04/12 08:08:10;;;;;;;;;;;;;;;;;;6129208;23;19928;-85
2023/04/12 08:10:37;;;;;;;;;;;;;;;;;;6154760;23;19928;-85
2023/04/12 08:13:05;;;;;;;;;;;;;;;;;;6128059;23;19943;-85
2023/04/12 08:15:32;;;;;;;;;;;;;;;;;;6129038;23;19970;-85
2023/04/12 08:18:01;;;;;;;;;;;;;;;;;;6129262;23;19921;-85
2023/04/12 08:20:28;;;;;;;;;;;;;;;;;;6154759;23;19921;-85
2023/04/12 08:22:55;;;;;;;;;;;;;;;;;;6128505;23;19928;-85
2023/04/12 08:25:23;;;;;;;;;;;;;;;;;;6154203;23;19927;-85
2023/04/12 08:27:50;;;;;;;;;;;;;;;;;;6164627;23;19924;-85
2023/04/12 08:30:25;;;;;;;;;;;;;;;;;;6153895;23;19925;-85
2023/04/12 08:32:56;;;;;;;;;;;;;;;;;;6128108;23;20371;-85
2023/04/12 08:35:27;;;;;;;;;;;;;;;;;;6128372;23;19932;-85
2023/04/12 08:37:54;;;;;;;;;;;;;;;;;;6154833;23;19920;-85
2023/04/12 08:40:21;;;;;;;;;;;;;;;;;;6153924;23;19928;-85
2023/04/12 08:42:48;;;;;;;;;;;;;;;;;;6155139;23;20359;-85
2023/04/12 08:45:15;;;;;;;;;;;;;;;;;;6128765;23;19921;-85
2023/04/12 08:47:45;;;;;;;;;;;;;;;;;;6154238;23;19920;-85
2023/04/12 08:50:13;;;;;;;;;;;;;;;;;;6154048;23;19932;-85
2023/04/12 08:52:43;;;;;;;;;;;;;;;;;;6138903;23;19925;-85
2023/04/12 08:55:13;;;;;;;;;;;;;;;;;;6163722;23;19943;-85
2023/04/12 08:57:43;;;;;;;;;;;;;;;;;;6154662;23;19920;-85
2023/04/12 09:00:11;;;;;;;;;;;;;;;;;;6127852;23;19921;-85
2023/04/12 09:02:45;;;;;;;;;;;;;;;;;;6137752;23;20261;-85
2023/04/12 09:05:13;;;;;;;;;;;;;;;;;;6163679;23;19929;-85
2023/04/12 09:07:40;;;;;;;;;;;;;;;;;;6138473;23;20245;-85
2023/04/12 09:10:09;;;;;;;;;;;;;;;;;;6164073;23;19921;-85
2023/04/12 09:12:36;;;;;;;;;;;;;;;;;;6154140;23;20249;-85
2023/04/12 09:15:07;;;;;;;;;;;;;;;;;;6154341;23;19928;-85
2023/04/12 09:17:37;;;;;;;;;;;;;;;;;;6154572;23;19921;-85
2023/04/12 09:20:14;;;;;;;;;;;;;;;;;;6153694;23;19929;-85
2023/04/12 09:22:45;;;;;;;;;;;;;;;;;;6152434;23;19924;-86
2023/04/12 09:25:13;;;;;;;;;;;;;;;;;;6103245;23;19940;-85
2023/04/12 09:27:47;;;;;;;;;;;;;;;;;;6154325;23;19927;-85
2023/04/12 09:30:15;;;;;;;;;;;;;;;;;;6153647;23;19921;-85
2023/04/12 09:32:42;;;;;;;;;;;;;;;;;;6153602;23;19931;-85
2023/04/12 09:35:11;;;;;;;;;;;;;;;;;;6127760;23;19924;-85
2023/04/12 09:37:40;;;;;;;;;;;;;;;;;;6128372;23;20368;-85
2023/04/12 09:40:08;;;;;;;;;;;;;;;;;;6154229;23;19932;-86
2023/04/12 09:42:52;;;;;;;;;;;;;;;;;;6127690;23;19928;-85
2023/04/12 09:45:20;;;;;;;;;;;;;;;;;;6163034;23;19928;-85
2023/04/12 09:47:47;;;;;;;;;;;;;;;;;;6154478;23;19921;-86
2023/04/12 09:50:19;;;;;;;;;;;;;;;;;;6128337;23;19920;-85
2023/04/12 09:52:47;;;;;;;;;;;;;;;;;;6164260;23;19920;-86
2023/04/12 09:55:14;;;;;;;;;;;;;;;;;;6153912;23;19920;-86
2023/04/12 09:57:42;;;;;;;;;;;;;;;;;;6104207;23;19920;-86
2023/04/12 10:00:16;;;;;;;;;;;;;;;;;;6137757;23;19921;-86
2023/04/12 10:02:49;;;;;;;;;;;;;;;;;;6164219;23;19925;-86
2023/04/12 10:05:19;;;;;;;;;;;;;;;;;;6162728;23;19927;-86
2023/04/12 10:07:46;;;;;;;;;;;;;;;;;;6154258;23;19920;-86
2023/04/12 10:10:14;;;;;;;;;;;;;;;;;;6127779;23;19924;-85
2023/04/12 10:12:44;;;;;;;;;;;;;;;;;;6154430;23;19920;-85
2023/04/12 10:15:17;;;;;;;;;;;;;;;;;;6163014;23;19921;-86
2023/04/12 10:17:49;;;;;;;;;;;;;;;;;;6140261;23;20354;-86
2023/04/12 10:20:19;;;;;;;;;;;;;;;;;;6129862;23;19944;-85
2023/04/12 10:22:47;;;;;;;;;;;;;;;;;;6156039;23;19928;-86
2023/04/12 10:25:15;;;;;;;;;;;;;;;;;;6155903;23;19921;-86
2023/04/12 10:27:44;;;;;;;;;;;;;;;;;;6165809;23;19921;-85
2023/04/12 10:30:22;;;;;;;;;;;;;;;;;;6105300;23;20260;-86
2023/04/12 10:32:49;;;;;;;;;;;;;;;;;;6130182;23;19998;-86
2023/04/12 10:35:21;;;;;;;;;;;;;;;;;;6164949;23;19921;-86
2023/04/12 10:37:57;;;;;;;;;;;;;;;;;;6155918;23;19920;-86
2023/04/12 10:40:27;;;;;;;;;;;;;;;;;;6155756;23;19927;-86
2023/04/12 10:43:12;;;;;;;;;;;;;;;;;;6129750;23;19920;-86
2023/04/12 10:45:41;;;;;;;;;;;;;;;;;;6142234;23;20226;-86
2023/04/12 10:48:08;;;;;;;;;;;;;;;;;;6155922;23;19920;-87
2023/04/12 10:50:35;;;;;;;;;;;;;;;;;;6129666;23;20260;-86
2023/04/12 10:53:20;;;;;;;;;;;;;;;;;;6138814;23;19921;-86
2023/04/12 10:55:47;;;;;;;;;;;;;;;;;;6127997;23;20364;-86
2023/04/12 10:58:44;;;;;;;;;;;;;;;;;;6139668;23;20344;-87
2023/04/12 11:01:17;;;;;;;;;;;;;;;;;;6156401;23;19936;-86
2023/04/12 11:03:59;;;;;;;;;;;;;;;;;;6154645;23;19928;-87
2023/04/12 11:06:39;;;;;;;;;;;;;;;;;;6155596;23;19925;-87
2023/04/12 11:09:37;;;;;;;;;;;;;;;;;;6152608;23;19920;-87
2023/04/12 11:12:17;;;;;;;;;;;;;;;;;;6166202;23;19921;-93
2023/04/12 11:14:45;;;;;;;;;;;;;;;;;;6130102;23;19920;-88
2023/04/12 11:17:46;;;;;;;;;;;;;;;;;;6122000;23;19909;-89
2023/04/12 11:20:15;;;;;;;;;;;;;;;;;;6104220;23;20274;-87
2023/04/12 11:22:42;;;;;;;;;;;;;;;;;;6105382;23;19921;-87
2023/04/12 11:25:16;;;;;;;;;;;;;;;;;;6105626;23;19931;-87
2023/04/12 11:27:49;;;;;;;;;;;;;;;;;;6104749;23;19924;-88
2023/04/12 11:30:19;;;;;;;;;;;;;;;;;;6129197;23;20226;-87
2023/04/12 11:32:48;;;;;;;;;;;;;;;;;;6129877;23;19921;-87
2023/04/12 11:35:18;;;;;;;;;;;;;;;;;;6102907;23;20299;-88
2023/04/12 11:37:45;;;;;;;;;;;;;;;;;;6103935;23;20264;-87
2023/04/12 11:40:12;;;;;;;;;;;;;;;;;;6104782;23;19928;-87
2023/04/12 11:42:42;;;;;;;;;;;;;;;;;;6130119;23;19921;-87
2023/04/12 11:45:12;;;;;;;;;;;;;;;;;;6129389;23;19921;-87
2023/04/12 11:47:42;;;;;;;;;;;;;;;;;;6104964;23;19921;-88
2023/04/12 11:50:10;;;;;;;;;;;;;;;;;;6105398;23;19921;-87
2023/04/12 11:52:39;;;;;;;;;;;;;;;;;;6129705;23;19920;-87
2023/04/12 11:55:09;;;;;;;;;;;;;;;;;;6129384;23;19927;-87
2023/04/12 11:57:38;;;;;;;;;;;;;;;;;;6105013;23;19928;-88
2023/04/12 12:00:05;;;;;;;;;;;;;;;;;;6104897;23;19936;-87
2023/04/12 12:02:39;;;;;;;;;;;;;;;;;;6129415;23;19932;-87
2023/04/12 12:05:10;;;;;;;;;;;;;;;;;;6138977;23;19921;-88
2023/04/12 12:07:38;;;;;;;;;;;;;;;;;;6129587;23;19927;-87
2023/04/12 12:10:05;;;;;;;;;;;;;;;;;;6105258;23;19920;-88
2023/04/12 12:12:33;;;;;;;;;;;;;;;;;;6104568;23;19920;-87
2023/04/12 12:15:00;;;;;;;;;;;;;;;;;;6165552;23;19920;-87
2023/04/12 12:17:27;;;;;;;;;;;;;;;;;;6130263;23;19920;-87
2023/04/12 12:20:00;;;;;;;;;;;;;;;;;;6105869;23;19921;-87
2023/04/12 12:22:28;;;;;;;;;;;;;;;;;;6138637;23;19927;-88
2023/04/12 12:24:59;;;;;;;;;;;;;;;;;;6129309;23;19928;-87
2023/04/12 12:27:34;;;;;;;;;;;;;;;;;;6104635;23;19927;-87
2023/04/12 12:30:03;;;;;;;;;;;;;;;;;;6104719;23;19921;-87
2023/04/12 12:32:32;;;;;;;;;;;;;;;;;;6104620;23;19943;-87
2023/04/12 12:35:07;;;;;;;;;;;;;;;;;;6129508;23;19920;-87
2023/04/12 12:37:36;;;;;;;;;;;;;;;;;;6104662;23;19921;-87
2023/04/12 12:40:10;;;;;;;;;;;;;;;;;;6104300;23;19932;-87
2023/04/12 12:42:46;;;;;;;;;;;;;;;;;;6139420;23;19920;-87
2023/04/12 12:45:13;;;;;;;;;;;;;;;;;;6129626;23;20226;-87
2023/04/12 12:47:50;;;;;;;;;;;;;;;;;;6128980;23;19920;-88
2023/04/12 12:50:17;;;;;;;;;;;;;;;;;;6164760;23;19920;-87
2023/04/12 12:52:46;;;;;;;;;;;;;;;;;;6155100;23;19920;-87
2023/04/12 12:55:13;;;;;;;;;;;;;;;;;;6104202;23;19931;-87
2023/04/12 12:57:41;;;;;;;;;;;;;;;;;;6155178;23;19928;-88
2023/04/12 13:00:12;;;;;;;;;;;;;;;;;;6104848;23;19920;-87
2023/04/12 13:02:39;;;;;;;;;;;;;;;;;;6128975;23;19927;-87
2023/04/12 13:05:09;;;;;;;;;;;;;;;;;;6129071;23;20344;-87
2023/04/12 13:07:36;;;;;;;;;;;;;;;;;;6104498;23;19927;-87
2023/04/12 13:10:07;;;;;;;;;;;;;;;;;;6154953;23;19920;-86
2023/04/12 13:12:34;;;;;;;;;;;;;;;;;;6104417;23;19927;-87
2023/04/12 13:15:01;;;;;;;;;;;;;;;;;;6155383;23;19921;-87
2023/04/12 13:17:29;;;;;;;;;;;;;;;;;;6104128;23;19920;-87
2023/04/12 13:19:58;;;;;;;;;;;;;;;;;;6128636;23;19921;-86
2023/04/12 13:22:26;;;;;;;;;;;;;;;;;;6155088;23;19943;-87
2023/04/12 13:24:53;;;;;;;;;;;;;;;;;;6104181;23;20264;-87
2023/04/12 13:50:01;;;;;;;;;;;;;;;;;;6214797;23;20340;-89
2023/04/12 13:52:28;;;;;;;;;;;;;;;;;;6164243;23;20347;-88
2023/04/12 13:54:57;;;;;;;;;;;;;;;;;;6190160;23;19924;-89
2023/04/12 13:57:24;;;;;;;;;;;;;;;;;;6189697;23;19924;-88
2023/04/12 13:59:51;;;;;;;;;;;;;;;;;;6189811;23;20359;-88
2023/04/12 14:02:18;;;;;;;;;;;;;;;;;;6164768;23;19924;-88
2023/04/12 14:04:49;;;;;;;;;;;;;;;;;;6226557;23;19920;-88
2023/04/12 14:07:17;;;;;;;;;;;;;;;;;;6218552;23;19919;-88
2023/04/12 14:09:45;;;;;;;;;;;;;;;;;;6216768;23;20248;-88
2023/04/12 14:12:12;;;;;;;;;;;;;;;;;;6165078;23;20336;-88
2023/04/12 14:14:39;;;;;;;;;;;;;;;;;;6165076;23;20236;-88
2023/04/12 14:17:06;;;;;;;;;;;;;;;;;;6192665;23;19927;-89
2023/04/12 14:19:33;;;;;;;;;;;;;;;;;;6189731;23;20343;-88
2023/04/12 14:22:01;;;;;;;;;;;;;;;;;;6189769;23;20087;-88
2023/04/12 14:24:30;;;;;;;;;;;;;;;;;;6190142;23;19927;-88
2023/04/12 14:26:58;;;;;;;;;;;;;;;;;;6190058;23;19927;-90
2023/04/12 14:29:25;;;;;;;;;;;;;;;;;;6216344;23;19951;-89
2023/04/12 14:31:52;;;;;;;;;;;;;;;;;;6189744;23;19920;-89
2023/04/12 14:34:19;;;;;;;;;;;;;;;;;;6164982;23;19920;-89
2023/04/12 14:36:47;;;;;;;;;;;;;;;;;;6190075;23;19927;-89
2023/04/12 14:39:17;;;;;;;;;;;;;;;;;;6189934;23;19920;-89
2023/04/12 14:41:45;;;;;;;;;;;;;;;;;;6165090;23;19926;-88
2023/04/12 15:08:22;;;;;;;;;;;;;;;;;;6220476;23;20336;-89
2023/04/12 15:10:49;;;;;;;;;;;;;;;;;;6202161;23;19927;-87
2023/04/12 15:13:16;;;;;;;;;;;;;;;;;;6167479;23;19919;-88
2023/04/12 15:15:46;;;;;;;;;;;;;;;;;;6218750;22;19959;-89
2023/04/12 15:18:13;;;;;;;;;;;;;;;;;;6228715;22;19951;-88
2023/04/12 15:20:40;;;;;;;;;;;;;;;;;;6218202;23;19952;-89
2023/04/12 15:23:07;;;;;;;;;;;;;;;;;;6219254;22;19940;-88
2023/04/12 15:25:38;;;;;;;;;;;;;;;;;;6219436;22;19955;-89
2023/04/12 15:28:05;;;;;;;;;;;;;;;;;;6219358;22;19939;-89
2023/04/12 15:30:32;;;;;;;;;;;;;;;;;;6219061;23;20000;-89
2023/04/12 15:32:59;;;;;;;;;;;;;;;;;;6243763;22;19943;-89
2023/04/12 15:35:26;;;;;;;;;;;;;;;;;;6235995;22;19928;-89
2023/04/12 15:37:54;;;;;;;;;;;;;;;;;;6216216;23;19927;-90
2023/04/12 15:40:21;;;;;;;;;;;;;;;;;;6164144;23;20359;-89
2023/04/12 15:42:50;;;;;;;;;;;;;;;;;;6216215;23;19920;-89
2023/04/12 15:45:17;;;;;;;;;;;;;;;;;;6200374;23;19920;-89
2023/04/12 15:47:44;;;;;;;;;;;;;;;;;;6215798;23;20259;-89
2023/04/12 15:50:12;;;;;;;;;;;;;;;;;;6215675;23;19920;-89
2023/04/12 15:52:41;;;;;;;;;;;;;;;;;;6189315;23;19920;-89
2023/04/12 15:55:10;;;;;;;;;;;;;;;;;;6215489;23;19920;-89
2023/04/12 15:57:37;;;;;;;;;;;;;;;;;;6188858;23;19920;-89
2023/04/12 16:00:19;;;;;;;;;;;;;;;;;;6200223;23;19927;-90
2023/04/12 16:02:48;;;;;;;;;;;;;;;;;;6223847;23;19931;-88
2023/04/12 16:05:15;;;;;;;;;;;;;;;;;;6187036;23;19927;-89
2023/04/12 16:07:43;;;;;;;;;;;;;;;;;;6189183;23;19931;-89
2023/04/12 16:10:11;;;;;;;;;;;;;;;;;;6188370;23;19927;-90
2023/04/12 16:12:38;;;;;;;;;;;;;;;;;;6214490;23;19931;-90
2023/04/12 16:15:07;;;;;;;;;;;;;;;;;;6162431;23;19947;-90
2023/04/12 16:17:36;;;;;;;;;;;;;;;;;;6189717;23;20358;-91
2023/04/12 16:20:05;;;;;;;;;;;;;;;;;;6188249;23;20344;-88
2023/04/12 16:22:32;;;;;;;;;;;;;;;;;;6214233;23;19935;-90
2023/04/12 16:24:59;;;;;;;;;;;;;;;;;;6215110;23;19919;-90
2023/04/12 16:27:28;;;;;;;;;;;;;;;;;;6163271;23;20259;-90
2023/04/12 16:45:50;;;;;;;;;;;;;;;;;;6185784;23;19927;-89
2023/04/12 16:48:17;;;;;;;;;;;;;;;;;;6133832;23;19920;-89
2023/04/12 16:50:46;;;;;;;;;;;;;;;;;;6194835;23;19920;-90
2023/04/12 16:53:13;;;;;;;;;;;;;;;;;;6194427;23;19920;-89
2023/04/12 16:55:42;;;;;;;;;;;;;;;;;;6185199;23;19920;-90
2023/04/12 16:58:10;;;;;;;;;;;;;;;;;;6158127;23;19920;-90
2023/04/12 17:00:37;;;;;;;;;;;;;;;;;;6184667;23;19920;-89
2023/04/12 17:03:07;;;;;;;;;;;;;;;;;;6183877;23;19931;-89
2023/04/12 17:05:34;;;;;;;;;;;;;;;;;;6133968;23;19927;-89
2023/04/12 17:08:02;;;;;;;;;;;;;;;;;;6158589;23;20341;-89
2023/04/12 17:10:29;;;;;;;;;;;;;;;;;;6158523;23;19920;-90
2023/04/12 17:12:56;;;;;;;;;;;;;;;;;;6157183;23;19928;-91
2023/04/12 17:15:24;;;;;;;;;;;;;;;;;;6184432;23;19928;-89
2023/04/12 17:17:52;;;;;;;;;;;;;;;;;;6157742;23;19924;-90
2023/04/12 17:20:21;;;;;;;;;;;;;;;;;;6133580;23;19920;-89
2023/04/12 17:22:49;;;;;;;;;;;;;;;;;;6183948;23;19928;-89
2023/04/12 17:25:16;;;;;;;;;;;;;;;;;;6134080;23;19920;-89
2023/04/12 17:27:43;;;;;;;;;;;;;;;;;;6135323;23;19920;-89
2023/04/12 17:30:11;;;;;;;;;;;;;;;;;;6160393;23;19920;-89
2023/04/12 17:32:38;;;;;;;;;;;;;;;;;;6159059;23;19927;-89
2023/04/12 17:35:06;;;;;;;;;;;;;;;;;;6196824;23;19925;-89
2023/04/12 17:37:35;;;;;;;;;;;;;;;;;;6185801;23;19927;-89
2023/04/12 17:40:04;;;;;;;;;;;;;;;;;;6160466;23;20279;-89
2023/04/12 17:42:31;;;;;;;;;;;;;;;;;;6160969;23;19931;-88
2023/04/12 17:44:58;;;;;;;;;;;;;;;;;;6135227;23;19920;-90
2023/04/12 17:47:25;;;;;;;;;;;;;;;;;;6186681;23;20336;-90
2023/04/12 17:49:53;;;;;;;;;;;;;;;;;;6186250;23;20248;-88
2023/04/12 17:52:20;;;;;;;;;;;;;;;;;;6186180;23;19920;-90
2023/04/12 17:54:48;;;;;;;;;;;;;;;;;;6159635;23;19920;-90
2023/04/12 17:57:15;;;;;;;;;;;;;;;;;;6186128;23;19920;-90
2023/04/12 17:59:42;;;;;;;;;;;;;;;;;;6160199;23;20249;-90
2023/04/12 18:02:10;;;;;;;;;;;;;;;;;;6159914;23;19920;-89
2023/04/12 18:04:39;;;;;;;;;;;;;;;;;;6170491;23;19920;-89
2023/04/12 18:07:08;;;;;;;;;;;;;;;;;;6157575;23;19924;-88
2023/04/12 18:09:37;;;;;;;;;;;;;;;;;;6168936;23;20084;-88
2023/04/12 18:12:05;;;;;;;;;;;;;;;;;;6188384;23;20256;-88
2023/04/12 18:14:32;;;;;;;;;;;;;;;;;;6162531;23;19920;-88
2023/04/12 18:16:59;;;;;;;;;;;;;;;;;;6161258;23;19920;-90
2023/04/12 18:19:26;;;;;;;;;;;;;;;;;;6164299;23;19920;-90
2023/04/12 18:21:53;;;;;;;;;;;;;;;;;;6192057;23;19920;-89
2023/04/12 18:24:21;;;;;;;;;;;;;;;;;;6191839;23;19927;-89
2023/04/12 18:26:48;;;;;;;;;;;;;;;;;;6163282;23;19920;-90
2023/04/12 18:29:18;;;;;;;;;;;;;;;;;;6189254;23;19927;-89
2023/04/12 18:31:45;;;;;;;;;;;;;;;;;;6189722;23;19921;-88
2023/04/12 18:34:12;;;;;;;;;;;;;;;;;;6139622;23;19930;-89
2023/04/12 18:36:41;;;;;;;;;;;;;;;;;;6164139;23;19927;-89
2023/04/12 18:39:08;;;;;;;;;;;;;;;;;;6173732;23;19926;-89
2023/04/12 18:41:35;;;;;;;;;;;;;;;;;;6161501;23;19924;-89
2023/04/12 18:44:02;;;;;;;;;;;;;;;;;;6189479;23;19931;-89
2023/04/12 18:46:31;;;;;;;;;;;;;;;;;;6171002;23;19920;-90
2023/04/12 18:48:58;;;;;;;;;;;;;;;;;;6195076;23;19920;-90
2023/04/12 18:51:25;;;;;;;;;;;;;;;;;;6163756;23;19920;-90
2023/04/12 18:53:52;;;;;;;;;;;;;;;;;;6163507;23;19931;-88
2023/04/12 18:56:23;;;;;;;;;;;;;;;;;;6164920;23;19920;-90
2023/04/12 18:58:51;;;;;;;;;;;;;;;;;;6138780;23;19920;-89
2023/04/12 19:01:18;;;;;;;;;;;;;;;;;;6188585;23;19920;-89
2023/04/12 19:03:47;;;;;;;;;;;;;;;;;;6190925;23;19928;-88
2023/04/12 19:06:14;;;;;;;;;;;;;;;;;;6168894;23;19927;-89
2023/04/12 19:08:42;;;;;;;;;;;;;;;;;;6161376;23;19927;-88
2023/04/12 19:11:09;;;;;;;;;;;;;;;;;;6159677;23;19928;-89
2023/04/12 19:13:37;;;;;;;;;;;;;;;;;;6135211;23;19920;-90
2023/04/12 19:16:06;;;;;;;;;;;;;;;;;;6185810;23;20242;-88
2023/04/12 19:18:33;;;;;;;;;;;;;;;;;;6159120;23;19920;-87
2023/04/12 19:21:05;;;;;;;;;;;;;;;;;;6185819;23;19924;-88
2023/04/12 19:23:32;;;;;;;;;;;;;;;;;;6186766;23;20344;-89
2023/04/12 19:25:59;;;;;;;;;;;;;;;;;;6193392;23;19920;-85
2023/04/12 19:28:26;;;;;;;;;;;;;;;;;;6195080;23;19943;-89
2023/04/12 19:30:53;;;;;;;;;;;;;;;;;;6135121;23;20193;-89
2023/04/12 19:33:21;;;;;;;;;;;;;;;;;;6158661;23;19920;-89